createdAt,value
2023-04-22T00:01:56.679Z,7.18
2023-04-22T00:04:23.309Z,7.10
2023-04-22T00:06:49.945Z,7.03
2023-04-22T00:09:16.461Z,6.94
2023-04-22T00:11:42.924Z,6.90
2023-04-22T00:14:09.398Z,6.88
2023-04-22T00:16:35.987Z,6.88
2023-04-22T00:19:02.574Z,6.91
2023-04-22T00:21:29.058Z,6.93
2023-04-22T00:23:55.590Z,6.95
2023-04-22T00:26:22.100Z,7.00
2023-04-22T00:28:48.559Z,7.05
2023-04-22T00:31:15.157Z,7.03
2023-04-22T00:33:41.914Z,7.09
2023-04-22T00:36:08.530Z,7.11
2023-04-22T00:38:35.092Z,7.18
2023-04-22T00:41:02.874Z,7.21
2023-04-22T00:43:29.300Z,7.23
2023-04-22T00:45:57.245Z,7.24
2023-04-22T00:48:27.445Z,7.29
2023-04-22T00:50:55.175Z,7.29
2023-04-22T00:53:21.604Z,7.29
2023-04-22T00:55:48.456Z,7.30
2023-04-22T00:58:14.981Z,7.27
2023-04-22T01:00:41.580Z,7.24
2023-04-22T01:03:08.404Z,7.15
2023-04-22T01:05:35.810Z,7.13
2023-04-22T01:08:02.531Z,7.10
2023-04-22T01:10:29.450Z,7.07
2023-04-22T01:12:55.902Z,7.08
2023-04-22T01:15:22.351Z,7.06
2023-04-22T01:17:49.102Z,7.03
2023-04-22T01:20:15.819Z,6.98
2023-04-22T01:22:45.522Z,7.01
2023-04-22T01:25:12.483Z,7.08
2023-04-22T01:27:39.724Z,7.14
2023-04-22T01:30:07.779Z,7.18
2023-04-22T01:32:34.690Z,7.19
2023-04-22T01:35:01.146Z,7.18
2023-04-22T01:37:28.722Z,7.18
2023-04-22T01:39:57.041Z,7.16
2023-04-22T01:42:24.411Z,7.11
2023-04-22T01:44:50.913Z,7.11
2023-04-22T01:47:17.407Z,7.07
2023-04-22T01:49:43.869Z,7.02
2023-04-22T01:52:10.635Z,6.98
2023-04-22T01:54:37.156Z,6.96
2023-04-22T01:57:10.708Z,6.98
2023-04-22T01:59:38.199Z,6.97
2023-04-22T02:02:04.878Z,6.99
2023-04-22T02:04:31.441Z,7.03
2023-04-22T02:06:57.980Z,7.06
2023-04-22T02:09:24.568Z,7.11
2023-04-22T02:11:51.010Z,7.17
2023-04-22T02:14:17.517Z,7.19
2023-04-22T02:16:44.221Z,7.23
2023-04-22T02:19:10.665Z,7.26
2023-04-22T02:21:37.118Z,7.27
2023-04-22T02:24:03.752Z,7.28
2023-04-22T02:26:30.791Z,7.29
2023-04-22T02:28:57.268Z,7.31
2023-04-22T02:31:23.838Z,7.29
2023-04-22T02:33:50.278Z,7.28
2023-04-22T02:36:16.742Z,7.29
2023-04-22T02:38:43.187Z,7.28
2023-04-22T02:41:09.693Z,7.31
2023-04-22T02:43:36.257Z,7.32
2023-04-22T02:46:02.706Z,7.29
2023-04-22T02:48:29.224Z,7.30
2023-04-22T02:50:55.777Z,7.27
2023-04-22T02:53:22.243Z,7.30
2023-04-22T02:55:48.672Z,7.31
2023-04-22T02:58:15.196Z,7.30
2023-04-22T03:00:41.638Z,7.34
2023-04-22T03:03:08.314Z,7.36
2023-04-22T03:05:34.914Z,7.37
2023-04-22T03:08:01.448Z,7.32
2023-04-22T03:10:27.891Z,7.26
2023-04-22T03:12:54.376Z,7.25
2023-04-22T03:15:21.711Z,7.23
2023-04-22T03:17:48.450Z,7.19
2023-04-22T03:20:15.307Z,7.21
2023-04-22T03:22:41.797Z,7.23
2023-04-22T03:25:08.747Z,7.24
2023-04-22T03:27:35.255Z,7.26
2023-04-22T03:30:01.875Z,7.30
2023-04-22T03:32:28.472Z,7.28
2023-04-22T03:34:54.969Z,7.29
2023-04-22T03:37:21.546Z,7.29
2023-04-22T03:39:48.197Z,7.30
2023-04-22T03:42:15.568Z,7.37
2023-04-22T03:44:42.064Z,7.46
2023-04-22T03:47:08.524Z,7.46
2023-04-22T03:49:35.447Z,7.45
2023-04-22T03:52:01.977Z,7.43
2023-04-22T03:54:28.398Z,7.47
2023-04-22T03:56:54.865Z,7.49
2023-04-22T03:59:21.460Z,7.46
2023-04-22T04:01:48.492Z,7.42
2023-04-22T04:04:15.132Z,7.39
2023-04-22T04:06:41.798Z,7.33
2023-04-22T04:09:08.293Z,7.26
2023-04-22T04:11:34.809Z,7.26
2023-04-22T04:14:01.233Z,7.29
2023-04-22T04:16:27.830Z,7.32
2023-04-22T04:18:54.334Z,7.34
2023-04-22T04:21:20.836Z,7.34
2023-04-22T04:23:47.662Z,7.37
2023-04-22T04:26:15.069Z,7.37
2023-04-22T04:28:41.840Z,7.36
2023-04-22T04:31:08.345Z,7.33
2023-04-22T04:33:36.981Z,7.33
2023-04-22T04:36:03.566Z,7.36
2023-04-22T04:38:30.633Z,7.36
2023-04-22T04:40:58.055Z,7.40
2023-04-22T04:43:26.156Z,7.37
2023-04-22T04:45:53.384Z,7.38
2023-04-22T04:48:19.971Z,7.37
2023-04-22T04:50:47.143Z,7.39
2023-04-22T04:53:13.734Z,7.39
2023-04-22T04:55:40.359Z,7.39
2023-04-22T04:58:06.947Z,7.41
2023-04-22T05:00:33.485Z,7.43
2023-04-22T05:03:00.170Z,7.41
2023-04-22T05:05:26.791Z,7.37
2023-04-22T05:07:53.827Z,7.36
2023-04-22T05:10:21.485Z,7.38
2023-04-22T05:12:48.031Z,7.40
2023-04-22T05:15:15.372Z,7.48
2023-04-22T05:17:41.964Z,7.59
2023-04-22T05:20:10.262Z,7.76
2023-04-22T05:22:37.212Z,8.15
2023-04-22T05:25:04.798Z,8.05
2023-04-22T05:27:31.307Z,7.84
2023-04-22T05:29:57.799Z,8.19
2023-04-22T05:32:24.404Z,8.80
2023-04-22T05:34:51.104Z,9.37
2023-04-22T05:37:17.671Z,9.66
2023-04-22T05:39:44.259Z,9.86
2023-04-22T05:42:11.106Z,10.34
2023-04-22T05:44:37.689Z,10.23
2023-04-22T05:47:04.154Z,10.49
2023-04-22T05:49:30.688Z,10.56
2023-04-22T05:51:57.117Z,10.06
2023-04-22T05:54:23.586Z,9.62
2023-04-22T05:56:50.128Z,9.36
2023-04-22T05:59:17.875Z,8.99
2023-04-22T06:01:45.944Z,8.84
2023-04-22T06:04:12.659Z,8.90
2023-04-22T06:06:39.422Z,8.88
2023-04-22T06:09:07.204Z,8.90
2023-04-22T06:11:34.070Z,8.96
2023-04-22T06:14:01.218Z,8.92
2023-04-22T06:16:27.909Z,8.86
2023-04-22T06:18:54.343Z,8.98
2023-04-22T06:21:20.879Z,8.99
2023-04-22T06:23:47.365Z,9.19
2023-04-22T06:26:13.806Z,9.14
2023-04-22T06:28:40.334Z,9.34
2023-04-22T06:31:07.012Z,9.37
2023-04-22T06:33:33.501Z,9.44
2023-04-22T06:36:00.192Z,9.32
2023-04-22T06:38:26.807Z,9.19
2023-04-22T06:40:53.320Z,9.28
2023-04-22T06:43:19.778Z,9.28
2023-04-22T06:45:46.357Z,9.78
2023-04-22T06:48:12.837Z,10.40
2023-04-22T06:50:40.897Z,10.83
2023-04-22T06:53:07.412Z,11.11
2023-04-22T06:55:33.839Z,11.33
2023-04-22T06:58:00.299Z,11.33
2023-04-22T07:00:28.064Z,11.50
2023-04-22T07:02:54.651Z,11.34
2023-04-22T07:05:21.183Z,11.18
2023-04-22T07:07:47.696Z,11.17
2023-04-22T07:10:14.648Z,11.16
2023-04-22T07:12:41.582Z,10.85
2023-04-22T07:15:08.582Z,10.78
2023-04-22T07:17:35.040Z,10.69
2023-04-22T07:20:02.278Z,10.57
2023-04-22T07:22:28.712Z,10.44
2023-04-22T07:24:55.209Z,10.44
2023-04-22T07:27:21.722Z,10.54
2023-04-22T07:29:48.238Z,10.74
2023-04-22T07:32:14.746Z,10.74
2023-04-22T07:34:41.197Z,11.02
2023-04-22T07:37:09.467Z,11.31
2023-04-22T07:39:36.113Z,11.47
2023-04-22T07:42:03.298Z,11.28
2023-04-22T07:44:29.818Z,11.44
2023-04-22T07:46:56.331Z,11.54
2023-04-22T07:49:22.828Z,11.65
2023-04-22T07:51:49.287Z,11.58
2023-04-22T07:54:15.887Z,11.45
2023-04-22T07:56:42.518Z,11.48
2023-04-22T07:59:08.944Z,11.46
2023-04-22T08:01:35.456Z,11.56
2023-04-22T08:04:02.234Z,11.54
2023-04-22T08:06:28.887Z,11.63
2023-04-22T08:08:55.351Z,11.72
2023-04-22T08:11:21.974Z,11.61
2023-04-22T08:13:48.383Z,11.79
2023-04-22T08:16:14.889Z,11.81
2023-04-22T08:18:41.521Z,11.78
2023-04-22T08:21:08.012Z,11.75
2023-04-22T08:23:34.519Z,11.66
2023-04-22T08:26:01.136Z,11.74
2023-04-22T08:28:27.651Z,11.85
2023-04-22T08:30:54.096Z,11.74
2023-04-22T08:33:20.698Z,11.83
2023-04-22T08:35:47.864Z,12.07
2023-04-22T08:38:14.336Z,12.45
2023-04-22T08:40:42.400Z,12.66
2023-04-22T08:43:09.402Z,12.79
2023-04-22T08:45:39.373Z,13.10
2023-04-22T08:48:08.879Z,13.30
2023-04-22T08:50:37.676Z,13.56
2023-04-22T08:53:04.195Z,13.81
2023-04-22T08:55:31.837Z,13.68
2023-04-22T08:58:00.899Z,13.59
2023-04-22T09:00:27.538Z,13.32
2023-04-22T09:02:54.830Z,13.55
2023-04-22T09:05:24.780Z,13.75
2023-04-22T09:07:52.766Z,13.73
2023-04-22T09:10:20.040Z,13.40
2023-04-22T09:12:47.128Z,13.60
2023-04-22T09:15:13.651Z,13.33
2023-04-22T09:17:41.415Z,13.00
2023-04-22T09:20:12.833Z,12.83
2023-04-22T09:22:42.585Z,12.57
2023-04-22T09:25:22.733Z,12.33
2023-04-22T09:27:54.280Z,12.32
2023-04-22T09:30:47.240Z,12.37
2023-04-22T09:33:14.495Z,12.53
2023-04-22T09:35:42.262Z,12.65
2023-04-22T09:38:10.964Z,12.88
2023-04-22T09:40:41.546Z,13.06
2023-04-22T09:43:09.151Z,13.36
2023-04-22T09:45:37.810Z,13.74
2023-04-22T09:48:08.024Z,13.91
2023-04-22T09:50:35.126Z,13.94
2023-04-22T09:53:07.893Z,14.10
2023-04-22T09:55:40.488Z,14.47
2023-04-22T09:58:10.421Z,14.39
2023-04-22T10:00:48.957Z,14.45
2023-04-22T10:03:16.032Z,14.62
2023-04-22T10:05:45.456Z,15.08
2023-04-22T10:08:13.279Z,15.22
2023-04-22T10:10:40.503Z,15.35
2023-04-22T10:13:09.073Z,15.43
2023-04-22T10:15:45.180Z,15.17
2023-04-22T10:18:18.772Z,14.72
2023-04-22T10:20:46.385Z,14.29
2023-04-22T10:23:18.112Z,14.16
2023-04-22T10:25:52.908Z,13.87
2023-04-22T10:28:23.721Z,13.70
2023-04-22T10:30:50.637Z,13.58
2023-04-22T10:33:31.736Z,13.60
2023-04-22T10:36:19.305Z,13.40
2023-04-22T10:38:54.758Z,13.45
2023-04-22T10:41:26.053Z,13.46
2023-04-22T10:44:00.306Z,13.62
2023-04-22T10:46:37.662Z,13.62
2023-04-22T10:49:15.725Z,13.53
2023-04-22T10:51:47.613Z,13.81
2023-04-22T10:54:28.069Z,13.93
2023-04-22T10:57:02.852Z,13.82
2023-04-22T10:59:30.279Z,13.80
2023-04-22T11:02:06.705Z,14.08
2023-04-22T11:04:33.941Z,14.35
2023-04-22T11:07:20.552Z,14.56
2023-04-22T11:09:50.717Z,14.70
2023-04-22T11:12:35.505Z,14.22
2023-04-22T11:15:05.306Z,14.09
2023-04-22T11:17:31.789Z,13.84
2023-04-22T11:20:00.212Z,13.55
2023-04-22T11:22:27.507Z,13.03
2023-04-22T11:24:58.613Z,12.76
2023-04-22T11:27:30.249Z,12.37
2023-04-22T11:30:12.805Z,12.03
2023-04-22T11:32:41.700Z,11.80
2023-04-22T11:35:35.022Z,11.74
2023-04-22T11:38:06.371Z,11.70
2023-04-22T11:40:38.033Z,11.58
2023-04-22T11:43:07.267Z,11.53
2023-04-22T11:45:36.181Z,11.49
2023-04-22T11:48:04.619Z,11.48
2023-04-22T11:50:36.785Z,11.44
2023-04-22T11:53:05.642Z,11.42
2023-04-22T11:55:34.681Z,11.37
2023-04-22T11:58:08.711Z,11.39
2023-04-22T12:00:37.894Z,11.36
2023-04-22T12:03:08.084Z,11.31
2023-04-22T12:05:37.964Z,11.30
2023-04-22T12:08:13.034Z,11.32
2023-04-22T12:10:52.545Z,11.31
2023-04-22T12:13:21.234Z,11.46
2023-04-22T12:15:48.514Z,11.45
2023-04-22T12:18:15.069Z,11.40
2023-04-22T12:20:42.598Z,11.18
2023-04-22T12:23:14.405Z,11.22
2023-04-22T12:25:41.780Z,11.12
2023-04-22T12:28:08.725Z,11.08
2023-04-22T12:30:35.289Z,11.13
2023-04-22T12:33:02.039Z,11.07
2023-04-22T12:35:28.496Z,11.08
2023-04-22T12:37:55.088Z,11.10
2023-04-22T12:40:21.639Z,11.08
2023-04-22T12:42:48.064Z,11.06
2023-04-22T12:45:14.612Z,11.02
2023-04-22T12:47:41.117Z,11.01
2023-04-22T12:50:08.983Z,11.01
2023-04-22T12:52:35.735Z,11.13
2023-04-22T12:55:02.358Z,11.32
2023-04-22T12:57:28.919Z,11.51
2023-04-22T12:59:55.732Z,11.67
2023-04-22T13:02:22.285Z,11.69
2023-04-22T13:04:48.823Z,11.65
2023-04-22T13:07:17.320Z,11.60
2023-04-22T13:09:44.376Z,11.55
2023-04-22T13:12:11.207Z,11.43
2023-04-22T13:14:37.811Z,11.40
2023-04-22T13:17:04.287Z,11.33
2023-04-22T13:19:31.810Z,11.29
2023-04-22T13:21:58.393Z,11.19
2023-04-22T13:24:24.834Z,11.07
2023-04-22T13:26:51.277Z,11.04
2023-04-22T13:29:17.839Z,11.01
2023-04-22T13:31:47.238Z,10.99
2023-04-22T13:34:15.253Z,11.02
2023-04-22T13:36:41.774Z,10.93
2023-04-22T13:39:08.912Z,10.94
2023-04-22T13:41:36.084Z,10.91
2023-04-22T13:44:04.348Z,10.80
2023-04-22T13:46:31.134Z,10.85
2023-04-22T13:48:58.607Z,10.85
2023-04-22T13:51:25.112Z,10.89
2023-04-22T13:53:51.834Z,10.96
2023-04-22T13:56:18.372Z,11.00
2023-04-22T13:58:44.893Z,10.95
2023-04-22T14:01:11.432Z,10.97
2023-04-22T14:03:38.156Z,10.90
2023-04-22T14:06:04.833Z,10.83
2023-04-22T14:08:31.357Z,10.79
2023-04-22T14:10:59.406Z,10.75
2023-04-22T14:13:29.823Z,10.82
2023-04-22T14:15:56.681Z,10.90
2023-04-22T14:18:23.535Z,10.92
2023-04-22T14:20:51.892Z,10.86
2023-04-22T14:23:19.303Z,10.82
2023-04-22T14:25:47.622Z,10.72
2023-04-22T14:28:15.290Z,10.70
2023-04-22T14:30:42.420Z,10.69
2023-04-22T14:33:09.776Z,10.62
2023-04-22T14:35:37.444Z,10.57
2023-04-22T14:38:07.501Z,10.54
2023-04-22T14:40:34.059Z,10.53
2023-04-22T14:43:03.340Z,10.55
2023-04-22T14:45:31.206Z,10.55
2023-04-22T14:47:58.617Z,10.54
2023-04-22T14:50:25.742Z,10.52
2023-04-22T14:52:53.004Z,10.36
2023-04-22T14:55:23.602Z,10.39
2023-04-22T14:57:53.182Z,10.37
2023-04-22T15:00:19.879Z,10.29
2023-04-22T15:02:46.558Z,10.32
2023-04-22T15:05:13.197Z,10.31
2023-04-22T15:07:39.694Z,10.26
2023-04-22T15:10:06.610Z,10.25
2023-04-22T15:12:33.124Z,10.26
2023-04-22T15:14:59.649Z,10.23
2023-04-22T15:17:27.308Z,10.23
2023-04-22T15:19:57.572Z,10.22
2023-04-22T15:22:25.196Z,10.27
2023-04-22T15:24:51.852Z,10.26
2023-04-22T15:27:18.851Z,10.29
2023-04-22T15:29:46.489Z,10.28
2023-04-22T15:32:13.309Z,10.28
2023-04-22T15:34:39.815Z,10.34
2023-04-22T15:37:06.284Z,10.43
2023-04-22T15:39:32.826Z,10.43
2023-04-22T15:41:59.267Z,10.60
2023-04-22T15:44:25.712Z,10.66
2023-04-22T15:46:52.453Z,10.65
2023-04-22T15:49:19.761Z,10.64
2023-04-22T15:51:46.251Z,10.74
2023-04-22T15:54:12.918Z,10.72
2023-04-22T15:56:39.396Z,10.68
2023-04-22T15:59:05.889Z,10.66
2023-04-22T16:01:32.432Z,10.52
2023-04-22T16:03:59.112Z,10.62
2023-04-22T16:06:25.818Z,10.66
2023-04-22T16:08:52.567Z,10.64
2023-04-22T16:11:19.117Z,10.50
2023-04-22T16:13:46.316Z,10.38
2023-04-22T16:16:13.036Z,10.47
2023-04-22T16:18:42.143Z,10.40
2023-04-22T16:21:10.683Z,10.38
2023-04-22T16:23:37.458Z,10.32
2023-04-22T16:26:05.624Z,10.25
2023-04-22T16:28:32.651Z,10.22
2023-04-22T16:30:59.232Z,10.16
2023-04-22T16:33:25.872Z,10.15
2023-04-22T16:35:52.377Z,10.16
2023-04-22T16:38:18.846Z,10.14
2023-04-22T16:40:45.502Z,10.13
2023-04-22T16:43:12.875Z,10.13
2023-04-22T16:45:39.457Z,10.09
2023-04-22T16:48:06.008Z,10.14
2023-04-22T16:50:32.537Z,10.12
2023-04-22T16:52:59.017Z,10.15
2023-04-22T16:55:25.549Z,10.19
2023-04-22T16:57:52.124Z,10.23
2023-04-22T17:00:18.722Z,10.20
2023-04-22T17:02:45.586Z,10.19
2023-04-22T17:05:12.198Z,10.19
2023-04-22T17:07:38.658Z,10.14
2023-04-22T17:10:05.874Z,10.08
2023-04-22T17:12:32.542Z,10.06
2023-04-22T17:14:59.063Z,10.05
2023-04-22T17:17:26.526Z,10.08
2023-04-22T17:19:52.976Z,10.05
2023-04-22T17:22:19.608Z,10.02
2023-04-22T17:24:46.328Z,9.99
2023-04-22T17:27:15.081Z,10.05
2023-04-22T17:29:41.838Z,10.01
2023-04-22T17:32:08.492Z,9.99
2023-04-22T17:34:34.998Z,9.98
2023-04-22T17:37:01.460Z,9.96
2023-04-22T17:39:27.902Z,9.93
2023-04-22T17:41:54.624Z,9.94
2023-04-22T17:44:21.125Z,9.88
2023-04-22T17:46:47.660Z,9.90
2023-04-22T17:49:14.144Z,9.91
2023-04-22T17:51:40.713Z,9.91
2023-04-22T17:54:07.180Z,9.91
2023-04-22T17:56:33.761Z,9.88
2023-04-22T17:59:00.711Z,9.90
2023-04-22T18:01:29.555Z,9.90
2023-04-22T18:03:56.780Z,9.93
2023-04-22T18:06:23.316Z,9.91
2023-04-22T18:08:49.773Z,9.88
2023-04-22T18:11:16.313Z,9.86
2023-04-22T18:13:42.972Z,9.85
2023-04-22T18:16:09.479Z,9.85
2023-04-22T18:18:35.994Z,9.83
2023-04-22T18:21:02.509Z,9.83
2023-04-22T18:23:29.052Z,9.82
2023-04-22T18:25:55.796Z,9.81
2023-04-22T18:28:22.338Z,9.81
2023-04-22T18:30:48.881Z,9.81
2023-04-22T18:33:15.720Z,9.81
2023-04-22T18:35:42.297Z,9.79
2023-04-22T18:38:08.755Z,9.80
2023-04-22T18:40:35.326Z,9.80
2023-04-22T18:43:01.803Z,9.78
2023-04-22T18:45:28.224Z,9.76
2023-04-22T18:47:54.689Z,9.76
2023-04-22T18:50:22.296Z,9.75
2023-04-22T18:52:48.841Z,9.73
2023-04-22T18:55:15.454Z,9.72
2023-04-22T18:57:41.912Z,9.71
2023-04-22T19:00:09.739Z,9.73
2023-04-22T19:02:39.105Z,9.71
2023-04-22T19:05:06.776Z,9.73
2023-04-22T19:07:33.334Z,9.74
2023-04-22T19:09:59.790Z,9.75
2023-04-22T19:12:26.321Z,9.75
2023-04-22T19:14:52.801Z,9.76
2023-04-22T19:17:19.225Z,9.78
2023-04-22T19:19:46.516Z,9.79
2023-04-22T19:22:13.052Z,9.80
2023-04-22T19:24:39.818Z,9.79
2023-04-22T19:27:12.097Z,9.76
2023-04-22T19:29:40.716Z,9.78
2023-04-22T19:32:09.776Z,9.77
2023-04-22T19:34:37.100Z,9.77
2023-04-22T19:37:04.286Z,9.73
2023-04-22T19:39:31.281Z,9.74
2023-04-22T19:41:58.346Z,9.76
2023-04-22T19:44:25.192Z,9.73
2023-04-22T19:46:52.374Z,9.71
2023-04-22T19:49:19.378Z,9.68
2023-04-22T19:51:46.437Z,9.65
2023-04-22T19:54:13.413Z,9.61
2023-04-22T19:56:41.303Z,9.51
2023-04-22T19:59:08.397Z,9.42
2023-04-22T20:01:35.624Z,9.40
2023-04-22T20:04:04.125Z,9.37
2023-04-22T20:06:32.476Z,9.34
2023-04-22T20:08:59.828Z,9.31
2023-04-22T20:11:26.669Z,9.26
2023-04-22T20:13:53.317Z,9.21
2023-04-22T20:16:20.688Z,9.18
2023-04-22T20:18:48.336Z,9.17
2023-04-22T20:21:16.285Z,9.17
2023-04-22T20:23:44.683Z,9.12
2023-04-22T20:26:11.980Z,9.12
2023-04-22T20:28:47.009Z,9.11
2023-04-22T20:31:14.656Z,9.05
2023-04-22T20:33:41.207Z,9.04
2023-04-22T20:36:08.055Z,8.98
2023-04-22T20:38:36.945Z,8.97
2023-04-22T20:41:05.739Z,8.95
2023-04-22T20:43:33.375Z,8.97
2023-04-22T20:45:59.993Z,8.96
2023-04-22T20:48:26.489Z,8.91
2023-04-22T20:50:52.970Z,8.86
2023-04-22T20:53:19.509Z,8.84
2023-04-22T20:55:46.094Z,8.81
2023-04-22T20:58:12.946Z,8.78
2023-04-22T21:00:39.420Z,8.77
2023-04-22T21:03:08.958Z,8.76
2023-04-22T21:05:41.083Z,8.75
2023-04-22T21:08:25.402Z,8.71
2023-04-22T21:10:53.934Z,8.71
2023-04-22T21:13:21.037Z,8.71
2023-04-22T21:15:57.674Z,8.71
2023-04-22T21:18:26.225Z,8.70
2023-04-22T21:20:53.885Z,8.72
2023-04-22T21:23:20.954Z,8.71
2023-04-22T21:25:50.818Z,8.71
2023-04-22T21:28:17.850Z,8.70
2023-04-22T21:30:44.537Z,8.70
2023-04-22T21:33:11.009Z,8.69
2023-04-22T21:35:39.205Z,8.68
2023-04-22T21:40:32.876Z,8.65
2023-04-22T21:43:02.217Z,8.63
2023-04-22T21:45:28.622Z,8.63
2023-04-22T21:47:55.270Z,8.60
2023-04-22T21:50:23.010Z,8.59
2023-04-22T21:52:49.661Z,8.60
2023-04-22T21:55:16.179Z,8.59
2023-04-22T21:57:42.862Z,8.59
2023-04-22T22:00:19.010Z,8.59
2023-04-22T22:02:46.568Z,8.59
2023-04-22T22:05:14.727Z,8.59
2023-04-22T22:07:42.382Z,8.56
2023-04-22T22:10:20.602Z,8.53
2023-04-22T22:12:47.561Z,8.49
2023-04-22T22:15:16.274Z,8.47
2023-04-22T22:17:43.625Z,8.46
2023-04-22T22:20:15.162Z,8.46
2023-04-22T22:22:42.788Z,8.47
2023-04-22T22:25:11.492Z,8.44
2023-04-22T22:27:40.908Z,8.42
2023-04-22T22:30:08.618Z,8.40
2023-04-22T22:32:36.593Z,8.38
2023-04-22T22:35:03.473Z,8.36
2023-04-22T22:37:30.288Z,8.34
2023-04-22T22:39:56.796Z,8.30
2023-04-22T22:42:23.356Z,8.30
2023-04-22T22:44:49.808Z,8.28
2023-04-22T22:47:19.373Z,8.28
2023-04-22T22:49:46.188Z,8.31
2023-04-22T22:52:13.221Z,8.32
2023-04-22T22:54:40.501Z,8.28
2023-04-22T22:57:07.523Z,8.28
2023-04-22T22:59:34.967Z,8.29
2023-04-22T23:02:01.482Z,8.28
2023-04-22T23:04:28.581Z,8.28
2023-04-22T23:06:55.713Z,8.29
2023-04-22T23:09:22.291Z,8.30
2023-04-22T23:11:51.695Z,8.28
2023-04-22T23:14:19.998Z,8.25
2023-04-22T23:16:47.217Z,8.22
2023-04-22T23:19:15.026Z,8.18
2023-04-22T23:21:42.191Z,8.12
2023-04-22T23:24:09.697Z,8.08
2023-04-22T23:26:37.082Z,8.00
2023-04-22T23:29:07.277Z,7.97
2023-04-22T23:31:34.747Z,7.95
2023-04-22T23:34:04.521Z,7.93
2023-04-22T23:36:33.592Z,7.92
2023-04-22T23:39:00.874Z,7.91
2023-04-22T23:41:27.635Z,7.88
2023-04-22T23:43:54.211Z,7.82
2023-04-22T23:46:20.657Z,7.83
2023-04-22T23:48:47.290Z,7.82
2023-04-22T23:51:16.319Z,7.85
2023-04-22T23:53:46.578Z,7.86
2023-04-22T23:56:14.168Z,7.90
2023-04-22T23:58:40.964Z,8.02
